Terminal Aerodrome Forecast
Issued by NWS Cleveland, OH

Home | Current Version | Previous Version | Graphics & Text | Print | Product List | Glossary Off
Versions: 1 2 3 4 5 6 7 8 9 10 11 12 13 14 15 16 17 18 19 20

000
FTUS41 KCLE 202000 AAA
TAFERI
TAF AMD
KERI 202009Z 2020/2118 21012G20KT P6SM VCTS SCT025CB OVC040
      TEMPO 2021/2022 VRB28G38KT 3SM -TSRA BKN015 OVC025CB
     FM202200 23020G35KT P6SM SCT015 OVC025
     FM210300 23012KT P6SM SCT025 OVC035
     FM211300 22015G25KT P6SM SCT025 OVC050=

USA.gov is the U.S. government's official web portal to all federal, state and local government web resources and services.